createdAt,value
2022-10-15T00:00:52.961Z,14.71
2022-10-15T00:05:50.264Z,14.63
2022-10-15T00:10:47.273Z,14.11
2022-10-15T00:15:43.917Z,13.91
2022-10-15T00:20:41.321Z,13.91
2022-10-15T00:25:41.725Z,14.11
2022-10-15T00:30:38.422Z,14.07
2022-10-15T00:35:35.145Z,13.96
2022-10-15T00:40:31.900Z,14.03
2022-10-15T00:45:29.228Z,14.17
2022-10-15T00:50:27.504Z,14.36
2022-10-15T00:55:26.826Z,14.38
2022-10-15T01:00:23.521Z,14.22
2022-10-15T01:05:21.938Z,13.87
2022-10-15T01:10:20.665Z,13.68
2022-10-15T01:15:20.722Z,13.69
2022-10-15T01:20:44.040Z,13.48
2022-10-15T01:25:48.472Z,13.21
2022-10-15T01:30:52.936Z,13.44
2022-10-15T01:35:54.198Z,13.66
2022-10-15T01:40:55.513Z,13.69
2022-10-15T01:45:56.230Z,13.52
2022-10-15T01:51:06.037Z,12.91
2022-10-15T01:56:07.330Z,12.78
2022-10-15T02:01:05.493Z,12.36
2022-10-15T02:06:09.217Z,12.14
2022-10-15T02:11:08.814Z,12.18
2022-10-15T02:16:12.351Z,12.29
2022-10-15T02:21:11.666Z,12.48
2022-10-15T02:26:10.760Z,12.74
2022-10-15T02:31:10.677Z,12.83
2022-10-15T02:36:26.306Z,13.24
2022-10-15T02:41:23.080Z,13.28
2022-10-15T02:46:20.909Z,13.16
2022-10-15T02:51:20.541Z,13.11
2022-10-15T02:56:17.415Z,13.25
2022-10-15T03:01:17.402Z,13.52
2022-10-15T03:06:15.563Z,13.66
2022-10-15T03:11:13.039Z,13.81
2022-10-15T03:16:10.529Z,13.95
2022-10-15T03:21:10.051Z,13.81
2022-10-15T03:26:08.430Z,13.84
2022-10-15T03:31:05.601Z,13.77
2022-10-15T03:36:03.632Z,13.60
2022-10-15T03:41:04.518Z,13.52
2022-10-15T03:46:07.592Z,13.43
2022-10-15T03:51:08.827Z,13.64
2022-10-15T03:56:06.739Z,13.45
2022-10-15T04:01:09.419Z,13.27
2022-10-15T04:06:06.870Z,13.26
2022-10-15T04:11:06.901Z,13.42
2022-10-15T04:16:04.336Z,13.56
2022-10-15T04:21:06.224Z,13.57
2022-10-15T04:26:04.118Z,13.37
2022-10-15T04:31:04.007Z,13.43
2022-10-15T04:36:06.286Z,13.54
2022-10-15T04:41:30.129Z,13.76
2022-10-15T04:46:33.514Z,13.73
2022-10-15T04:51:39.456Z,13.88
2022-10-15T04:56:43.909Z,14.11
2022-10-15T05:01:40.687Z,13.93
2022-10-15T05:06:40.155Z,13.98
2022-10-15T05:11:49.764Z,14.24
2022-10-15T05:16:47.967Z,14.10
2022-10-15T05:21:46.205Z,13.95
2022-10-15T05:26:52.741Z,13.73
2022-10-15T05:31:51.541Z,13.43
2022-10-15T05:36:55.805Z,13.00
2022-10-15T05:41:53.159Z,12.64
2022-10-15T05:46:56.248Z,12.61
2022-10-15T05:57:12.495Z,13.05
2022-10-15T06:02:10.055Z,13.24
2022-10-15T06:07:07.493Z,13.27
2022-10-15T06:12:04.222Z,13.23
2022-10-15T06:17:01.048Z,12.80
2022-10-15T06:21:57.757Z,13.10
2022-10-15T06:26:55.150Z,13.18
2022-10-15T06:31:52.273Z,12.95
2022-10-15T06:36:49.000Z,12.67
2022-10-15T06:41:45.865Z,12.28
2022-10-15T06:46:44.773Z,12.49
2022-10-15T06:51:49.009Z,11.90
2022-10-15T06:56:45.891Z,11.99
2022-10-15T07:01:43.249Z,11.96
2022-10-15T07:06:41.108Z,12.18
2022-10-15T07:11:37.978Z,12.39
2022-10-15T07:16:36.981Z,12.69
2022-10-15T07:21:34.532Z,12.87
2022-10-15T07:26:33.168Z,13.27
2022-10-15T07:31:32.119Z,13.06
2022-10-15T07:36:30.380Z,12.64
2022-10-15T07:41:27.830Z,12.62
2022-10-15T07:46:24.595Z,12.85
2022-10-15T07:51:24.922Z,13.47
2022-10-15T07:56:21.693Z,13.15
2022-10-15T08:01:20.685Z,13.01
2022-10-15T08:06:18.350Z,13.21
2022-10-15T08:11:17.409Z,13.60
2022-10-15T08:16:14.797Z,13.09
2022-10-15T08:21:19.069Z,13.50
2022-10-15T08:26:15.926Z,13.38
2022-10-15T08:31:13.303Z,13.83
2022-10-15T08:36:10.152Z,14.01
2022-10-15T08:41:17.523Z,14.59
2022-10-15T08:51:19.740Z,14.71
2022-10-15T08:56:20.694Z,14.65
2022-10-15T09:01:21.930Z,14.84
2022-10-15T09:06:21.625Z,14.77
2022-10-15T09:11:30.150Z,14.41
2022-10-15T09:16:30.146Z,15.09
2022-10-15T09:21:26.951Z,14.93
2022-10-15T09:26:28.138Z,14.96
2022-10-15T09:31:28.055Z,15.02
2022-10-15T09:36:33.525Z,15.10
2022-10-15T09:41:34.868Z,15.20
2022-10-15T09:46:31.723Z,15.10
2022-10-15T09:51:33.097Z,15.07
2022-10-15T09:56:35.393Z,15.40
2022-10-15T10:01:33.563Z,15.32
2022-10-15T10:06:30.429Z,15.63
2022-10-15T10:11:27.543Z,15.39
2022-10-15T10:16:24.804Z,15.20
2022-10-15T10:21:26.068Z,15.45
2022-10-15T10:26:23.022Z,15.66
2022-10-15T10:31:28.915Z,15.71
2022-10-15T10:36:28.073Z,16.08
2022-10-15T10:41:45.876Z,16.48
2022-10-15T10:46:42.589Z,16.68
2022-10-15T10:51:48.196Z,17.05
2022-10-15T10:56:45.239Z,16.53
2022-10-15T11:01:45.345Z,16.55
2022-10-15T11:06:57.540Z,16.56
2022-10-15T11:12:01.859Z,16.56
2022-10-15T11:17:01.519Z,16.70
2022-10-15T11:22:08.506Z,16.61
2022-10-15T11:27:11.884Z,16.89
2022-10-15T11:32:47.884Z,16.70
2022-10-15T11:37:56.131Z,16.77
2022-10-15T11:42:56.008Z,16.94
2022-10-15T11:47:54.949Z,17.16
2022-10-15T11:53:16.055Z,17.19
2022-10-15T11:58:15.850Z,16.93
2022-10-15T12:03:15.067Z,17.23
2022-10-15T12:08:13.926Z,17.36
2022-10-15T12:13:19.113Z,17.83
2022-10-15T12:18:20.374Z,17.76
2022-10-15T12:23:24.704Z,17.50
2022-10-15T12:28:23.220Z,17.37
2022-10-15T12:33:33.091Z,17.20
2022-10-15T12:38:31.923Z,17.35
2022-10-15T12:43:29.725Z,17.30
2022-10-15T12:48:31.409Z,17.32
2022-10-15T12:58:38.218Z,17.54
2022-10-15T13:03:37.032Z,17.46
2022-10-15T13:08:36.757Z,17.51
2022-10-15T13:13:39.593Z,17.48
2022-10-15T13:18:36.712Z,17.79
2022-10-15T13:23:36.947Z,17.74
2022-10-15T13:28:38.102Z,17.91
2022-10-15T13:33:39.604Z,17.63
2022-10-15T13:38:38.737Z,17.80
2022-10-15T13:43:35.733Z,17.68
2022-10-15T13:48:33.029Z,17.73
2022-10-15T13:53:31.233Z,17.73
2022-10-15T13:58:44.367Z,17.33
2022-10-15T14:03:45.927Z,17.53
2022-10-15T14:08:42.576Z,17.81
2022-10-15T14:13:44.674Z,17.87
2022-10-15T14:18:48.119Z,18.06
2022-10-15T14:23:47.812Z,17.94
2022-10-15T14:28:50.666Z,17.84
2022-10-15T14:33:47.799Z,17.64
2022-10-15T14:38:46.905Z,17.44
2022-10-15T14:43:43.441Z,17.46
2022-10-15T14:48:42.745Z,17.42
2022-10-15T14:53:44.248Z,17.73
2022-10-15T14:58:46.843Z,17.76
2022-10-15T15:03:47.113Z,17.83
2022-10-15T15:08:43.907Z,17.58
2022-10-15T15:13:41.925Z,17.99
2022-10-15T15:18:43.285Z,17.67
2022-10-15T15:23:41.074Z,17.77
2022-10-15T15:28:37.959Z,17.81
2022-10-15T15:33:37.480Z,17.86
2022-10-15T15:38:37.069Z,17.98
2022-10-15T15:43:34.766Z,18.04
2022-10-15T15:48:33.147Z,18.03
2022-10-15T15:53:30.063Z,17.89
2022-10-15T15:58:26.824Z,17.86
2022-10-15T16:03:24.542Z,17.88
2022-10-15T16:08:26.867Z,17.82
2022-10-15T16:13:25.838Z,17.80
2022-10-15T16:18:28.892Z,17.81
2022-10-15T16:23:29.266Z,17.71
2022-10-15T16:28:44.177Z,17.68
2022-10-15T16:33:43.877Z,17.84
2022-10-15T16:38:41.940Z,17.85
2022-10-15T16:43:49.551Z,17.92
2022-10-15T16:48:51.356Z,17.86
2022-10-15T16:53:52.172Z,17.85
2022-10-15T16:58:49.329Z,17.81
2022-10-15T17:03:46.302Z,17.81
2022-10-15T17:08:45.529Z,17.83
2022-10-15T17:13:45.725Z,17.78
2022-10-15T17:18:43.083Z,17.67
2022-10-15T17:23:40.445Z,17.72
2022-10-15T17:28:37.421Z,17.74
2022-10-15T17:33:36.060Z,17.69
2022-10-15T17:38:33.059Z,17.62
2022-10-15T17:43:30.062Z,17.47
2022-10-15T17:48:27.381Z,17.37
2022-10-15T17:53:24.959Z,17.38
2022-10-15T17:58:27.279Z,17.26
2022-10-15T18:03:24.691Z,17.28
2022-10-15T18:08:26.132Z,17.18
2022-10-15T18:13:48.662Z,17.37
2022-10-15T18:18:47.710Z,17.47
2022-10-15T18:23:46.099Z,17.45
2022-10-15T18:28:44.420Z,17.40
2022-10-15T18:33:44.052Z,17.32
2022-10-15T18:38:44.534Z,17.24
2022-10-15T18:43:41.552Z,17.11
2022-10-15T18:48:39.251Z,17.12
2022-10-15T18:53:36.078Z,17.07
2022-10-15T18:58:33.128Z,17.16
2022-10-15T19:03:30.127Z,17.23
2022-10-15T19:08:30.638Z,17.25
2022-10-15T19:13:27.541Z,17.16
2022-10-15T19:19:00.828Z,17.09
2022-10-15T19:24:07.880Z,17.16
2022-10-15T19:29:05.082Z,17.05
2022-10-15T19:34:06.083Z,16.86
2022-10-15T19:39:04.484Z,16.79
2022-10-15T19:44:03.189Z,16.72
2022-10-15T19:49:02.462Z,16.70
2022-10-15T19:54:02.787Z,16.78
2022-10-15T19:59:04.066Z,16.74
2022-10-15T20:04:05.887Z,16.58
2022-10-15T20:09:11.999Z,16.59
2022-10-15T20:14:08.752Z,16.61
2022-10-15T20:19:08.332Z,16.56
2022-10-15T20:24:09.339Z,16.25
2022-10-15T20:29:10.172Z,16.18
2022-10-15T20:34:07.365Z,16.15
2022-10-15T20:39:04.279Z,16.14
2022-10-15T20:44:00.971Z,15.97
2022-10-15T20:48:58.881Z,15.53
2022-10-15T20:53:57.593Z,15.37
2022-10-15T20:58:54.285Z,15.34
2022-10-15T21:03:51.191Z,15.07
2022-10-15T21:08:47.903Z,15.04
2022-10-15T21:13:46.284Z,15.47
2022-10-15T21:18:43.053Z,15.63
2022-10-15T21:23:41.084Z,15.97
2022-10-15T21:28:38.170Z,16.10
2022-10-15T21:33:35.842Z,16.25
2022-10-15T21:38:41.731Z,16.55
2022-10-15T21:43:38.444Z,16.72
2022-10-15T21:48:36.500Z,16.73
2022-10-15T21:53:33.126Z,16.64
2022-10-15T21:58:29.902Z,16.61
2022-10-15T22:03:26.469Z,16.76
2022-10-15T22:08:28.493Z,16.80
2022-10-15T22:13:25.116Z,16.49
2022-10-15T22:18:21.976Z,16.40
2022-10-15T22:23:19.007Z,16.21
2022-10-15T22:28:19.993Z,16.16
2022-10-15T22:33:16.825Z,16.36
2022-10-15T22:38:13.837Z,16.37
2022-10-15T22:43:10.540Z,16.36
2022-10-15T22:48:07.853Z,16.21
2022-10-15T22:53:04.446Z,16.29
2022-10-15T22:58:00.911Z,16.25
2022-10-15T23:02:57.925Z,16.39
2022-10-15T23:07:55.504Z,16.37
2022-10-15T23:12:52.067Z,16.54
2022-10-15T23:17:49.050Z,16.73
2022-10-15T23:22:45.594Z,16.70
2022-10-15T23:27:45.118Z,16.50
2022-10-15T23:32:41.662Z,16.25
2022-10-15T23:37:39.739Z,16.03
2022-10-15T23:42:36.393Z,15.98
2022-10-15T23:47:33.647Z,16.02
2022-10-15T23:52:31.230Z,16.04
2022-10-15T23:57:30.345Z,15.97
